sensor_id;sensor_type;location;lat;lon;timestamp;pressure;altitude;pressure_sealevel;temperature;humidity
71194;BME280;58903;47.210;8.618;2023-11-21T00:00:27;93759.88;;;25.70;42.56
71194;BME280;58903;47.210;8.618;2023-11-21T00:03:16;93756.38;;;25.70;42.55
71194;BME280;58903;47.210;8.618;2023-11-21T00:09:10;93742.63;;;25.70;42.95
71194;BME280;58903;47.210;8.618;2023-11-21T00:11:52;93739.31;;;25.71;42.97
71194;BME280;58903;47.210;8.618;2023-11-21T00:14:25;93733.38;;;25.67;43.22
71194;BME280;58903;47.210;8.618;2023-11-21T00:17:11;93729.38;;;25.68;43.12
71194;BME280;58903;47.210;8.618;2023-11-21T00:19:46;93729.38;;;25.68;43.30
71194;BME280;58903;47.210;8.618;2023-11-21T00:22:16;93727.34;;;25.69;43.30
71194;BME280;58903;47.210;8.618;2023-11-21T00:25:12;93724.09;;;25.70;42.42
71194;BME280;58903;47.210;8.618;2023-11-21T00:28:00;93716.09;;;25.67;42.94
71194;BME280;58903;47.210;8.618;2023-11-21T00:30:36;93710.09;;;25.68;43.31
71194;BME280;58903;47.210;8.618;2023-11-21T00:33:29;93713.16;;;25.65;43.46
71194;BME280;58903;47.210;8.618;2023-11-21T00:36:05;93717.25;;;25.58;42.77
71194;BME280;58903;47.210;8.618;2023-11-21T00:38:46;93723.94;;;25.63;42.78
71194;BME280;58903;47.210;8.618;2023-11-21T00:41:52;93724.47;;;25.61;42.98
71194;BME280;58903;47.210;8.618;2023-11-21T00:44:29;93724.47;;;25.61;43.13
71194;BME280;58903;47.210;8.618;2023-11-21T00:47:14;93726.69;;;25.63;42.71
71194;BME280;58903;47.210;8.618;2023-11-21T00:49:41;93734.00;;;25.60;43.06
71194;BME280;58903;47.210;8.618;2023-11-21T00:52:22;93725.53;;;25.58;42.93
71194;BME280;58903;47.210;8.618;2023-11-21T00:55:04;93730.75;;;25.62;43.02
71194;BME280;58903;47.210;8.618;2023-11-21T00:57:34;93722.25;;;25.60;42.72
71194;BME280;58903;47.210;8.618;2023-11-21T01:00:01;93722.25;;;25.60;43.10
71194;BME280;58903;47.210;8.618;2023-11-21T01:02:36;93725.22;;;25.62;43.43
71194;BME280;58903;47.210;8.618;2023-11-21T01:11:50;93711.75;;;25.58;42.65
71194;BME280;58903;47.210;8.618;2023-11-21T01:14:26;93711.31;;;25.54;43.39
71194;BME280;58903;47.210;8.618;2023-11-21T01:17:29;93718.34;;;25.55;43.61
71194;BME280;58903;47.210;8.618;2023-11-21T01:20:08;93713.88;;;25.52;43.37
71194;BME280;58903;47.210;8.618;2023-11-21T01:23:07;93710.38;;;25.52;43.06
71194;BME280;58903;47.210;8.618;2023-11-21T01:26:07;93717.66;;;25.49;43.76
71194;BME280;58903;47.210;8.618;2023-11-21T01:28:59;93712.91;;;25.50;42.71
71194;BME280;58903;47.210;8.618;2023-11-21T01:31:25;93713.44;;;25.48;43.01
71194;BME280;58903;47.210;8.618;2023-11-21T01:34:09;93718.41;;;25.50;43.44
71194;BME280;58903;47.210;8.618;2023-11-21T01:40:40;93701.47;;;25.46;43.14
71194;BME280;58903;47.210;8.618;2023-11-21T01:43:17;93702.00;;;25.44;43.36
71194;BME280;58903;47.210;8.618;2023-11-21T01:45:58;93694.00;;;25.40;42.90
71194;BME280;58903;47.210;8.618;2023-11-21T01:48:27;93688.22;;;25.44;43.84
71194;BME280;58903;47.210;8.618;2023-11-21T01:51:25;93690.13;;;25.49;43.83
71194;BME280;58903;47.210;8.618;2023-11-21T01:54:05;93686.22;;;25.45;43.33
71194;BME280;58903;47.210;8.618;2023-11-21T01:56:32;93693.41;;;25.48;43.43
71194;BME280;58903;47.210;8.618;2023-11-21T02:02:08;93700.03;;;25.39;43.62
71194;BME280;58903;47.210;8.618;2023-11-21T02:04:46;93699.63;;;25.35;43.61
71194;BME280;58903;47.210;8.618;2023-11-21T02:07:15;93706.38;;;25.34;43.21
71194;BME280;58903;47.210;8.618;2023-11-21T02:10:13;93699.94;;;25.31;44.12
71194;BME280;58903;47.210;8.618;2023-11-21T02:12:46;93691.97;;;25.28;43.81
71194;BME280;58903;47.210;8.618;2023-11-21T02:15:16;93695.69;;;25.30;44.08
71194;BME280;58903;47.210;8.618;2023-11-21T02:17:49;93680.53;;;25.24;43.69
71194;BME280;58903;47.210;8.618;2023-11-21T02:20:18;93683.91;;;25.30;43.32
71194;BME280;58903;47.210;8.618;2023-11-21T02:22:51;93681.38;;;25.32;43.98
71194;BME280;58903;47.210;8.618;2023-11-21T02:25:33;93682.88;;;25.33;43.36
71194;BME280;58903;47.210;8.618;2023-11-21T02:28:03;93677.91;;;25.31;43.40
71194;BME280;58903;47.210;8.618;2023-11-21T02:30:30;93673.97;;;25.27;43.15
71194;BME280;58903;47.210;8.618;2023-11-21T02:32:57;93675.78;;;25.24;43.15
71194;BME280;58903;47.210;8.618;2023-11-21T02:35:29;93670.25;;;25.24;42.95
71194;BME280;58903;47.210;8.618;2023-11-21T02:37:59;93674.06;;;25.21;44.01
71194;BME280;58903;47.210;8.618;2023-11-21T02:40:27;93666.97;;;25.26;43.12
71194;BME280;58903;47.210;8.618;2023-11-21T02:42:53;93664.00;;;25.24;43.20
71194;BME280;58903;47.210;8.618;2023-11-21T02:45:21;93659.25;;;25.24;43.75
71194;BME280;58903;47.210;8.618;2023-11-21T02:47:49;93652.25;;;25.23;43.63
71194;BME280;58903;47.210;8.618;2023-11-21T02:50:16;93661.25;;;25.24;43.86
71194;BME280;58903;47.210;8.618;2023-11-21T02:52:47;93665.06;;;25.21;43.59
71194;BME280;58903;47.210;8.618;2023-11-21T02:55:13;93665.06;;;25.21;43.62
71194;BME280;58903;47.210;8.618;2023-11-21T02:57:39;93675.13;;;25.18;43.23
71194;BME280;58903;47.210;8.618;2023-11-21T03:00:05;93676.59;;;25.19;44.03
71194;BME280;58903;47.210;8.618;2023-11-21T03:02:39;93677.88;;;25.18;43.52
71194;BME280;58903;47.210;8.618;2023-11-21T03:05:08;93692.56;;;25.21;43.21
71194;BME280;58903;47.210;8.618;2023-11-21T03:07:39;93689.59;;;25.19;42.98
71194;BME280;58903;47.210;8.618;2023-11-21T03:10:14;93697.84;;;25.19;43.00
71194;BME280;58903;47.210;8.618;2023-11-21T03:12:42;93684.09;;;25.19;43.77
71194;BME280;58903;47.210;8.618;2023-11-21T03:15:10;93675.63;;;25.17;43.73
71194;BME280;58903;47.210;8.618;2023-11-21T03:17:41;93668.66;;;25.16;43.14
71194;BME280;58903;47.210;8.618;2023-11-21T03:20:08;93663.91;;;25.16;43.14
71194;BME280;58903;47.210;8.618;2023-11-21T03:22:51;93661.66;;;25.15;43.38
71194;BME280;58903;47.210;8.618;2023-11-21T03:25:27;93673.09;;;25.19;43.42
71194;BME280;58903;47.210;8.618;2023-11-21T03:27:53;93673.09;;;25.19;43.19
71194;BME280;58903;47.210;8.618;2023-11-21T03:30:21;93676.38;;;25.17;43.90
71194;BME280;58903;47.210;8.618;2023-11-21T03:32:48;93677.41;;;25.14;43.97
71194;BME280;58903;47.210;8.618;2023-11-21T03:35:17;93680.41;;;25.16;43.13
71194;BME280;58903;47.210;8.618;2023-11-21T03:37:44;93672.66;;;25.15;43.86
71194;BME280;58903;47.210;8.618;2023-11-21T03:40:18;93681.13;;;25.17;43.30
71194;BME280;58903;47.210;8.618;2023-11-21T03:42:44;93681.66;;;25.15;43.10
71194;BME280;58903;47.210;8.618;2023-11-21T03:45:37;93687.38;;;25.17;43.93
71194;BME280;58903;47.210;8.618;2023-11-21T03:48:19;93699.13;;;25.18;43.17
71194;BME280;58903;47.210;8.618;2023-11-21T03:50:56;93695.63;;;25.17;42.98
71194;BME280;58903;47.210;8.618;2023-11-21T03:53:35;93690.66;;;25.16;43.79
71194;BME280;58903;47.210;8.618;2023-11-21T03:56:31;93692.88;;;25.17;42.95
71194;BME280;58903;47.210;8.618;2023-11-21T03:59:35;93692.13;;;25.17;43.98
71194;BME280;58903;47.210;8.618;2023-11-21T04:02:20;93691.41;;;25.16;42.89
71194;BME280;58903;47.210;8.618;2023-11-21T04:04:46;93697.22;;;25.13;42.96
71194;BME280;58903;47.210;8.618;2023-11-21T04:07:25;93704.44;;;25.16;43.82
71194;BME280;58903;47.210;8.618;2023-11-21T04:09:59;93695.97;;;25.14;43.55
71194;BME280;58903;47.210;8.618;2023-11-21T04:12:51;93700.19;;;25.15;42.90
71194;BME280;58903;47.210;8.618;2023-11-21T04:15:44;93706.44;;;25.15;43.80
71194;BME280;58903;47.210;8.618;2023-11-21T04:18:22;93700.94;;;25.15;43.31
71194;BME280;58903;47.210;8.618;2023-11-21T04:21:27;93705.19;;;25.16;43.26
71194;BME280;58903;47.210;8.618;2023-11-21T04:24:15;93711.19;;;25.15;43.39
71194;BME280;58903;47.210;8.618;2023-11-21T04:26:44;93700.94;;;25.15;43.46
71194;BME280;58903;47.210;8.618;2023-11-21T04:29:28;93701.97;;;25.12;43.01
71194;BME280;58903;47.210;8.618;2023-11-21T04:32:25;93709.94;;;25.16;43.83
71194;BME280;58903;47.210;8.618;2023-11-21T04:34:51;93706.97;;;25.14;43.68
71194;BME280;58903;47.210;8.618;2023-11-21T04:37:33;93711.19;;;25.15;42.86
71194;BME280;58903;47.210;8.618;2023-11-21T04:40:25;93710.44;;;25.14;43.60
71194;BME280;58903;47.210;8.618;2023-11-21T04:43:13;93703.47;;;25.13;43.85
71194;BME280;58903;47.210;8.618;2023-11-21T04:45:38;93704.22;;;25.14;43.59
71194;BME280;58903;47.210;8.618;2023-11-21T04:48:16;93699.97;;;25.13;43.04
71194;BME280;58903;47.210;8.618;2023-11-21T04:50:52;93699.97;;;25.13;43.63
71194;BME280;58903;47.210;8.618;2023-11-21T04:53:53;93704.94;;;25.14;43.46
71194;BME280;58903;47.210;8.618;2023-11-21T04:56:49;93715.94;;;25.14;43.40
71194;BME280;58903;47.210;8.618;2023-11-21T04:59:35;93720.72;;;25.14;42.86
71194;BME280;58903;47.210;8.618;2023-11-21T05:05:36;93712.47;;;25.14;43.41
71194;BME280;58903;47.210;8.618;2023-11-21T05:08:34;93714.47;;;25.13;43.02
71194;BME280;58903;47.210;8.618;2023-11-21T05:11:04;93718.47;;;25.12;43.37
71194;BME280;58903;47.210;8.618;2023-11-21T05:13:31;93717.75;;;25.12;43.09
71194;BME280;58903;47.210;8.618;2023-11-21T05:16:19;93713.72;;;25.13;43.26
71194;BME280;58903;47.210;8.618;2023-11-21T05:18:56;93726.72;;;25.12;43.53
71194;BME280;58903;47.210;8.618;2023-11-21T05:24:42;93732.97;;;25.13;43.30
71194;BME280;58903;47.210;8.618;2023-11-21T05:27:09;93734.47;;;25.14;43.76
71194;BME280;58903;47.210;8.618;2023-11-21T05:29:48;93733.19;;;25.15;43.71
71194;BME280;58903;47.210;8.618;2023-11-21T05:32:49;93730.44;;;25.15;42.74
71194;BME280;58903;47.210;8.618;2023-11-21T05:38:58;93741.16;;;25.18;43.55
71194;BME280;58903;47.210;8.618;2023-11-21T05:41:51;93746.47;;;25.16;43.74
71194;BME280;58903;47.210;8.618;2023-11-21T05:44:30;93745.72;;;25.16;43.16
71194;BME280;58903;47.210;8.618;2023-11-21T05:46:57;93747.63;;;25.21;43.34
71194;BME280;58903;47.210;8.618;2023-11-21T05:49:33;93744.88;;;25.21;43.25
71194;BME280;58903;47.210;8.618;2023-11-21T05:52:28;93748.16;;;25.19;43.36
71194;BME280;58903;47.210;8.618;2023-11-21T05:55:03;93742.88;;;25.21;43.46
71194;BME280;58903;47.210;8.618;2023-11-21T05:57:34;93745.81;;;25.23;43.01
71194;BME280;58903;47.210;8.618;2023-11-21T06:03:57;93733.03;;;25.26;43.56
71194;BME280;58903;47.210;8.618;2023-11-21T06:06:35;93741.72;;;25.30;43.35
71194;BME280;58903;47.210;8.618;2023-11-21T06:09:01;93739.41;;;25.34;43.32
71194;BME280;58903;47.210;8.618;2023-11-21T06:11:27;93741.34;;;25.39;43.33
71194;BME280;58903;47.210;8.618;2023-11-21T06:13:59;93741.03;;;25.42;43.07
71194;BME280;58903;47.210;8.618;2023-11-21T06:16:26;93747.59;;;25.39;42.82
71194;BME280;58903;47.210;8.618;2023-11-21T06:18:56;93753.09;;;25.39;43.07
71194;BME280;58903;47.210;8.618;2023-11-21T06:21:24;93761.28;;;25.45;43.55
71194;BME280;58903;47.210;8.618;2023-11-21T06:23:51;93765.81;;;25.42;44.20
71194;BME280;58903;47.210;8.618;2023-11-21T06:26:19;93763.13;;;25.37;43.38
71194;BME280;58903;47.210;8.618;2023-11-21T06:28:47;93764.56;;;25.43;43.83
71194;BME280;58903;47.210;8.618;2023-11-21T06:31:15;93763.81;;;25.43;43.52
71194;BME280;58903;47.210;8.618;2023-11-21T06:33:41;93757.06;;;25.44;43.26
71194;BME280;58903;47.210;8.618;2023-11-21T06:36:07;93764.47;;;25.49;42.79
71194;BME280;58903;47.210;8.618;2023-11-21T06:38:34;93753.69;;;25.51;42.73
71194;BME280;58903;47.210;8.618;2023-11-21T06:41:03;93768.13;;;25.57;42.40
71194;BME280;58903;47.210;8.618;2023-11-21T06:43:30;93766.63;;;25.56;42.80
71194;BME280;58903;47.210;8.618;2023-11-21T06:46:07;93773.19;;;25.53;42.44
71194;BME280;58903;47.210;8.618;2023-11-21T06:48:48;93775.94;;;25.53;42.81
71194;BME280;58903;47.210;8.618;2023-11-21T06:51:29;93767.22;;;25.49;43.23
71194;BME280;58903;47.210;8.618;2023-11-21T06:54:16;93779.00;;;25.50;43.60
71194;BME280;58903;47.210;8.618;2023-11-21T06:56:51;93783.75;;;25.49;42.90
71194;BME280;58903;47.210;8.618;2023-11-21T06:59:20;93777.09;;;25.45;43.41
71194;BME280;58903;47.210;8.618;2023-11-21T07:01:52;93779.75;;;25.50;42.99
71194;BME280;58903;47.210;8.618;2023-11-21T07:08:29;93772.97;;;25.51;43.06
71194;BME280;58903;47.210;8.618;2023-11-21T07:10:57;93770.72;;;25.50;43.10
71194;BME280;58903;47.210;8.618;2023-11-21T07:13:36;93772.22;;;25.51;43.02
71194;BME280;58903;47.210;8.618;2023-11-21T07:16:06;93771.47;;;25.50;42.82
71194;BME280;58903;47.210;8.618;2023-11-21T07:18:33;93770.94;;;25.52;43.09
71194;BME280;58903;47.210;8.618;2023-11-21T07:21:13;93776.44;;;25.52;43.53
71194;BME280;58903;47.210;8.618;2023-11-21T07:23:42;93771.47;;;25.50;43.10
71194;BME280;58903;47.210;8.618;2023-11-21T07:26:10;93784.63;;;25.57;43.51
71194;BME280;58903;47.210;8.618;2023-11-21T07:28:38;93776.88;;;25.56;42.86
71194;BME280;58903;47.210;8.618;2023-11-21T07:31:06;93772.88;;;25.57;42.75
71194;BME280;58903;47.210;8.618;2023-11-21T07:33:52;93775.09;;;25.58;43.22
71194;BME280;58903;47.210;8.618;2023-11-21T07:36:50;93771.63;;;25.58;43.43
71194;BME280;58903;47.210;8.618;2023-11-21T07:39:23;93776.16;;;25.55;43.10
71194;BME280;58903;47.210;8.618;2023-11-21T07:42:23;93784.84;;;25.59;43.26
71194;BME280;58903;47.210;8.618;2023-11-21T07:44:55;93779.34;;;25.59;42.51
71194;BME280;58903;47.210;8.618;2023-11-21T07:47:39;93777.63;;;25.56;43.36
71194;BME280;58903;47.210;8.618;2023-11-21T07:50:08;93780.59;;;25.58;43.57
71194;BME280;58903;47.210;8.618;2023-11-21T07:52:43;93786.97;;;25.53;42.83
71194;BME280;58903;47.210;8.618;2023-11-21T07:55:20;93779.19;;;25.52;43.18
71194;BME280;58903;47.210;8.618;2023-11-21T07:58:02;93781.22;;;25.51;43.38
71194;BME280;58903;47.210;8.618;2023-11-21T08:00:30;93790.16;;;25.57;42.85
71194;BME280;58903;47.210;8.618;2023-11-21T08:03:00;93792.91;;;25.57;43.23
71194;BME280;58903;47.210;8.618;2023-11-21T08:05:35;93795.88;;;25.59;43.10
71194;BME280;58903;47.210;8.618;2023-11-21T08:08:14;93792.91;;;25.57;42.92
71194;BME280;58903;47.210;8.618;2023-11-21T08:11:19;93801.91;;;25.58;42.66
71194;BME280;58903;47.210;8.618;2023-11-21T08:13:47;93799.16;;;25.58;42.82
71194;BME280;58903;47.210;8.618;2023-11-21T08:16:22;93798.91;;;25.56;43.54
71194;BME280;58903;47.210;8.618;2023-11-21T08:18:51;93795.88;;;25.59;42.84
71194;BME280;58903;47.210;8.618;2023-11-21T08:21:27;93793.13;;;25.59;42.61
71194;BME280;58903;47.210;8.618;2023-11-21T08:24:03;93800.09;;;25.60;43.20
71194;BME280;58903;47.210;8.618;2023-11-21T08:26:50;93805.38;;;25.58;43.37
71194;BME280;58903;47.210;8.618;2023-11-21T08:29:22;93801.16;;;25.57;43.44
71194;BME280;58903;47.210;8.618;2023-11-21T08:32:07;93796.16;;;25.56;42.89
71194;BME280;58903;47.210;8.618;2023-11-21T08:34:33;93806.88;;;25.59;43.50
71194;BME280;58903;47.210;8.618;2023-11-21T08:37:36;93808.34;;;25.60;42.91
71194;BME280;58903;47.210;8.618;2023-11-21T08:44:02;93808.88;;;25.59;42.76
71194;BME280;58903;47.210;8.618;2023-11-21T08:46:33;93813.84;;;25.60;43.09
71194;BME280;58903;47.210;8.618;2023-11-21T08:49:37;93812.38;;;25.59;43.47
71194;BME280;58903;47.210;8.618;2023-11-21T08:52:04;93813.66;;;25.58;43.52
71194;BME280;58903;47.210;8.618;2023-11-21T08:54:31;93815.91;;;25.60;43.29
71194;BME280;58903;47.210;8.618;2023-11-21T08:57:16;93822.88;;;25.61;43.58
71194;BME280;58903;47.210;8.618;2023-11-21T08:59:42;93818.66;;;25.60;43.10
71194;BME280;58903;47.210;8.618;2023-11-21T09:02:27;93823.94;;;25.58;43.03
71194;BME280;58903;47.210;8.618;2023-11-21T09:05:26;93821.91;;;25.58;42.68
71194;BME280;58903;47.210;8.618;2023-11-21T09:07:52;93817.91;;;25.59;43.33
71194;BME280;58903;47.210;8.618;2023-11-21T09:13:45;93833.88;;;25.61;42.83
71194;BME280;58903;47.210;8.618;2023-11-21T09:16:47;93836.13;;;25.62;43.54
71194;BME280;58903;47.210;8.618;2023-11-21T09:19:32;93831.88;;;25.61;43.44
71194;BME280;58903;47.210;8.618;2023-11-21T09:22:10;93834.63;;;25.61;42.64
71194;BME280;58903;47.210;8.618;2023-11-21T09:24:39;93838.16;;;25.62;42.63
71194;BME280;58903;47.210;8.618;2023-11-21T09:27:06;93835.38;;;25.62;42.72
71194;BME280;58903;47.210;8.618;2023-11-21T09:29:33;93833.34;;;25.62;42.83
71194;BME280;58903;47.210;8.618;2023-11-21T09:31:59;93841.88;;;25.64;43.25
71194;BME280;58903;47.210;8.618;2023-11-21T09:34:27;93840.59;;;25.65;43.50
71194;BME280;58903;47.210;8.618;2023-11-21T09:37:02;93838.38;;;25.64;42.99
71194;BME280;58903;47.210;8.618;2023-11-21T09:39:44;93839.84;;;25.65;43.24
71194;BME280;58903;47.210;8.618;2023-11-21T09:42:36;93833.59;;;25.64;42.77
71194;BME280;58903;47.210;8.618;2023-11-21T09:45:28;93836.13;;;25.62;42.69
71194;BME280;58903;47.210;8.618;2023-11-21T09:48:21;93844.63;;;25.64;43.66
71194;BME280;58903;47.210;8.618;2023-11-21T09:50:59;93840.38;;;25.63;42.75
71194;BME280;58903;47.210;8.618;2023-11-21T09:53:48;93839.84;;;25.65;43.24
71194;BME280;58903;47.210;8.618;2023-11-21T09:56:18;93844.38;;;25.62;42.79
71194;BME280;58903;47.210;8.618;2023-11-21T09:59:09;93841.63;;;25.62;42.65
71194;BME280;58903;47.210;8.618;2023-11-21T10:01:58;93849.16;;;25.62;43.46
71194;BME280;58903;47.210;8.618;2023-11-21T10:04:50;93849.06;;;25.67;42.66
71194;BME280;58903;47.210;8.618;2023-11-21T10:07:34;93846.31;;;25.67;43.19
71194;BME280;58903;47.210;8.618;2023-11-21T10:10:10;93844.09;;;25.66;43.32
71194;BME280;58903;47.210;8.618;2023-11-21T10:16:04;93847.59;;;25.66;43.07
71194;BME280;58903;47.210;8.618;2023-11-21T10:18:51;93842.09;;;25.66;42.73
71194;BME280;58903;47.210;8.618;2023-11-21T10:21:21;93839.84;;;25.65;42.89
71194;BME280;58903;47.210;8.618;2023-11-21T10:24:06;93836.56;;;25.66;42.70
71194;BME280;58903;47.210;8.618;2023-11-21T10:26:58;93830.53;;;25.68;43.20
71194;BME280;58903;47.210;8.618;2023-11-21T10:29:29;93827.03;;;25.67;42.87
71194;BME280;58903;47.210;8.618;2023-11-21T10:31:56;93829.50;;;25.71;43.50
71194;BME280;58903;47.210;8.618;2023-11-21T10:34:24;93821.22;;;25.71;43.25
71194;BME280;58903;47.210;8.618;2023-11-21T10:36:50;93826.00;;;25.70;43.52
71194;BME280;58903;47.210;8.618;2023-11-21T10:39:21;93826.22;;;25.72;43.04
71194;BME280;58903;47.210;8.618;2023-11-21T10:41:49;93823.66;;;25.74;42.45
71194;BME280;58903;47.210;8.618;2023-11-21T10:44:17;93819.63;;;25.75;42.93
71194;BME280;58903;47.210;8.618;2023-11-21T10:47:00;93823.66;;;25.74;42.35
71194;BME280;58903;47.210;8.618;2023-11-21T10:49:27;93826.44;;;25.74;42.52
71194;BME280;58903;47.210;8.618;2023-11-21T10:51:57;93830.66;;;25.75;42.26
71194;BME280;58903;47.210;8.618;2023-11-21T10:54:25;93826.44;;;25.74;42.02
71194;BME280;58903;47.210;8.618;2023-11-21T10:57:00;93827.91;;;25.75;42.34
71194;BME280;58903;47.210;8.618;2023-11-21T10:59:39;93818.69;;;25.73;42.13
71194;BME280;58903;47.210;8.618;2023-11-21T11:08:42;93826.75;;;25.71;40.76
71194;BME280;58903;47.210;8.618;2023-11-21T11:11:20;93821.94;;;25.71;41.04
71194;BME280;58903;47.210;8.618;2023-11-21T11:14:19;93831.50;;;25.70;40.16
71194;BME280;58903;47.210;8.618;2023-11-21T11:17:07;93835.22;;;25.73;40.42
71194;BME280;58903;47.210;8.618;2023-11-21T11:20:00;93834.47;;;25.72;40.32
71194;BME280;58903;47.210;8.618;2023-11-21T11:22:37;93834.25;;;25.70;40.76
71194;BME280;58903;47.210;8.618;2023-11-21T11:28:47;93828.53;;;25.68;40.54
71194;BME280;58903;47.210;8.618;2023-11-21T11:38:15;93816.75;;;25.68;40.75
71194;BME280;58903;47.210;8.618;2023-11-21T11:40:47;93823.53;;;25.67;41.39
71194;BME280;58903;47.210;8.618;2023-11-21T11:46:57;93816.00;;;25.67;41.29
71194;BME280;58903;47.210;8.618;2023-11-21T11:49:27;93824.50;;;25.69;41.54
71194;BME280;58903;47.210;8.618;2023-11-21T11:59:21;93818.47;;;25.71;41.36
71194;BME280;58903;47.210;8.618;2023-11-21T12:02:09;93818.97;;;25.69;41.60
71194;BME280;58903;47.210;8.618;2023-11-21T12:04:49;93813.25;;;25.67;41.37
71194;BME280;58903;47.210;8.618;2023-11-21T12:07:51;93821.94;;;25.71;40.91
71194;BME280;58903;47.210;8.618;2023-11-21T12:10:52;93816.22;;;25.69;41.15
71194;BME280;58903;47.210;8.618;2023-11-21T12:13:36;93815.25;;;25.67;41.58
71194;BME280;58903;47.210;8.618;2023-11-21T12:16:04;93818.97;;;25.69;40.55
71194;BME280;58903;47.210;8.618;2023-11-21T12:18:30;93821.53;;;25.67;40.65
71194;BME280;58903;47.210;8.618;2023-11-21T12:20:59;93816.53;;;25.66;39.85
71194;BME280;58903;47.210;8.618;2023-11-21T12:23:41;93823.09;;;25.63;39.48
71194;BME280;58903;47.210;8.618;2023-11-21T12:26:41;93821.19;;;25.58;37.90
71194;BME280;58903;47.210;8.618;2023-11-21T12:29:18;93822.75;;;25.53;36.75
71194;BME280;58903;47.210;8.618;2023-11-21T12:31:49;93816.72;;;25.55;37.15
71194;BME280;58903;47.210;8.618;2023-11-21T12:34:26;93817.47;;;25.55;37.53
71194;BME280;58903;47.210;8.618;2023-11-21T12:36:53;93817.69;;;25.57;37.78
71194;BME280;58903;47.210;8.618;2023-11-21T12:39:39;93816.41;;;25.58;38.44
71194;BME280;58903;47.210;8.618;2023-11-21T12:42:05;93827.63;;;25.60;37.40
71194;BME280;58903;47.210;8.618;2023-11-21T12:44:39;93814.59;;;25.61;37.79
71194;BME280;58903;47.210;8.618;2023-11-21T12:47:08;93826.59;;;25.63;37.91
71194;BME280;58903;47.210;8.618;2023-11-21T12:49:48;93828.31;;;25.66;38.35
71194;BME280;58903;47.210;8.618;2023-11-21T12:52:39;93828.53;;;25.68;37.93
71194;BME280;58903;47.210;8.618;2023-11-21T12:55:07;93836.78;;;25.68;37.76
71194;BME280;58903;47.210;8.618;2023-11-21T12:57:36;93832.00;;;25.69;38.56
71194;BME280;58903;47.210;8.618;2023-11-21T13:00:42;93836.13;;;25.62;37.26
71194;BME280;58903;47.210;8.618;2023-11-21T13:03:12;93833.66;;;25.59;37.28
71194;BME280;58903;47.210;8.618;2023-11-21T13:05:44;93834.41;;;25.59;36.80
71194;BME280;58903;47.210;8.618;2023-11-21T13:08:13;93833.88;;;25.61;36.78
71194;BME280;58903;47.210;8.618;2023-11-21T13:10:56;93836.97;;;25.57;37.34
71194;BME280;58903;47.210;8.618;2023-11-21T13:13:25;93834.22;;;25.57;36.28
71194;BME280;58903;47.210;8.618;2023-11-21T13:16:06;93834.00;;;25.55;35.41
71194;BME280;58903;47.210;8.618;2023-11-21T13:18:36;93839.28;;;25.53;36.26
71194;BME280;58903;47.210;8.618;2023-11-21T13:21:04;93837.34;;;25.48;36.56
71194;BME280;58903;47.210;8.618;2023-11-21T13:23:52;93837.56;;;25.50;36.99
71194;BME280;58903;47.210;8.618;2023-11-21T13:26:31;93837.78;;;25.52;35.96
71194;BME280;58903;47.210;8.618;2023-11-21T13:29:05;93836.06;;;25.49;36.70
71194;BME280;58903;47.210;8.618;2023-11-21T13:31:38;93843.28;;;25.52;35.68
71194;BME280;58903;47.210;8.618;2023-11-21T13:34:09;93842.03;;;25.53;35.74
71194;BME280;58903;47.210;8.618;2023-11-21T13:36:43;93851.31;;;25.50;35.61
71194;BME280;58903;47.210;8.618;2023-11-21T13:39:13;93837.03;;;25.52;36.25
71194;BME280;58903;47.210;8.618;2023-11-21T13:41:45;93845.00;;;25.55;36.48
71194;BME280;58903;47.210;8.618;2023-11-21T13:44:13;93845.50;;;25.54;36.41
71194;BME280;58903;47.210;8.618;2023-11-21T13:47:00;93850.50;;;25.55;36.82
71194;BME280;58903;47.210;8.618;2023-11-21T13:49:41;93839.28;;;25.53;36.83
71194;BME280;58903;47.210;8.618;2023-11-21T13:52:16;93850.50;;;25.55;35.76
71194;BME280;58903;47.210;8.618;2023-11-21T13:55:00;93845.00;;;25.55;36.88
71194;BME280;58903;47.210;8.618;2023-11-21T13:58:07;93848.25;;;25.54;36.41
71194;BME280;58903;47.210;8.618;2023-11-21T14:00:48;93854.50;;;25.54;37.17
71194;BME280;58903;47.210;8.618;2023-11-21T14:03:25;93857.28;;;25.54;36.16
71194;BME280;58903;47.210;8.618;2023-11-21T14:06:05;93856.22;;;25.57;37.74
71194;BME280;58903;47.210;8.618;2023-11-21T14:08:43;93874.97;;;25.59;37.14
71194;BME280;58903;47.210;8.618;2023-11-21T14:11:28;93865.97;;;25.58;36.96
71194;BME280;58903;47.210;8.618;2023-11-21T14:13:55;93867.25;;;25.57;36.86
71194;BME280;58903;47.210;8.618;2023-11-21T14:16:30;93875.28;;;25.55;37.00
71194;BME280;58903;47.210;8.618;2023-11-21T14:19:07;93879.22;;;25.60;37.53
71194;BME280;58903;47.210;8.618;2023-11-21T14:21:50;93877.94;;;25.61;36.60
71194;BME280;58903;47.210;8.618;2023-11-21T14:24:32;93872.00;;;25.57;36.20
71194;BME280;58903;47.210;8.618;2023-11-21T14:27:35;93885.25;;;25.58;37.93
71194;BME280;58903;47.210;8.618;2023-11-21T14:30:25;93883.78;;;25.57;36.17
71194;BME280;58903;47.210;8.618;2023-11-21T14:33:03;93890.09;;;25.52;36.89
71194;BME280;58903;47.210;8.618;2023-11-21T14:35:40;93891.38;;;25.51;36.15
71194;BME280;58903;47.210;8.618;2023-11-21T14:38:08;93893.88;;;25.49;35.64
71194;BME280;58903;47.210;8.618;2023-11-21T14:40:52;93899.38;;;25.49;35.68
71194;BME280;58903;47.210;8.618;2023-11-21T14:43:23;93890.41;;;25.49;35.68
71194;BME280;58903;47.210;8.618;2023-11-21T14:45:58;93898.66;;;25.49;35.95
71194;BME280;58903;47.210;8.618;2023-11-21T14:48:54;93903.72;;;25.45;34.63
71194;BME280;58903;47.210;8.618;2023-11-21T14:52:18;93904.22;;;25.43;35.65
71194;BME280;58903;47.210;8.618;2023-11-21T14:55:18;93896.63;;;25.49;35.83
71194;BME280;58903;47.210;8.618;2023-11-21T14:58:02;93904.69;;;25.47;35.34
71194;BME280;58903;47.210;8.618;2023-11-21T15:00:30;93904.41;;;25.51;35.79
71194;BME280;58903;47.210;8.618;2023-11-21T15:02:58;93906.63;;;25.52;35.96
71194;BME280;58903;47.210;8.618;2023-11-21T15:05:36;93907.16;;;25.51;35.20
71194;BME280;58903;47.210;8.618;2023-11-21T15:08:05;93902.66;;;25.48;36.09